sensor_id;sensor_type;location;lat;lon;timestamp;temperature;humidity
38241;DHT22;24037;49.536;8.500;2022-07-06T00:02:06;17.70;83.40
38241;DHT22;24037;49.536;8.500;2022-07-06T00:04:32;17.60;84.10
38241;DHT22;24037;49.536;8.500;2022-07-06T00:06:58;17.60;85.20
38241;DHT22;24037;49.536;8.500;2022-07-06T00:09:25;17.50;85.40
38241;DHT22;24037;49.536;8.500;2022-07-06T00:11:52;17.50;86.00
38241;DHT22;24037;49.536;8.500;2022-07-06T00:14:18;17.50;86.50
38241;DHT22;24037;49.536;8.500;2022-07-06T00:16:44;17.50;86.80
38241;DHT22;24037;49.536;8.500;2022-07-06T00:19:10;17.40;87.20
38241;DHT22;24037;49.536;8.500;2022-07-06T00:21:36;17.30;87.90
38241;DHT22;24037;49.536;8.500;2022-07-06T00:24:03;17.30;88.50
38241;DHT22;24037;49.536;8.500;2022-07-06T00:26:29;17.20;88.80
38241;DHT22;24037;49.536;8.500;2022-07-06T00:28:56;17.20;89.30
38241;DHT22;24037;49.536;8.500;2022-07-06T00:31:22;17.20;89.90
38241;DHT22;24037;49.536;8.500;2022-07-06T00:33:48;17.10;90.20
38241;DHT22;24037;49.536;8.500;2022-07-06T00:36:15;17.10;90.30
38241;DHT22;24037;49.536;8.500;2022-07-06T00:38:41;17.10;90.50
38241;DHT22;24037;49.536;8.500;2022-07-06T00:41:08;17.10;90.60
38241;DHT22;24037;49.536;8.500;2022-07-06T00:44:07;17.10;90.70
38241;DHT22;24037;49.536;8.500;2022-07-06T00:46:33;17.00;90.90
38241;DHT22;24037;49.536;8.500;2022-07-06T00:49:00;17.00;91.10
38241;DHT22;24037;49.536;8.500;2022-07-06T00:51:30;16.90;91.40
38241;DHT22;24037;49.536;8.500;2022-07-06T00:54:03;16.90;91.60
38241;DHT22;24037;49.536;8.500;2022-07-06T00:56:30;16.90;91.70
38241;DHT22;24037;49.536;8.500;2022-07-06T00:59:01;16.90;91.90
38241;DHT22;24037;49.536;8.500;2022-07-06T01:01:28;16.80;92.10
38241;DHT22;24037;49.536;8.500;2022-07-06T01:03:54;16.70;92.20
38241;DHT22;24037;49.536;8.500;2022-07-06T01:06:21;16.70;92.40
38241;DHT22;24037;49.536;8.500;2022-07-06T01:08:47;16.70;92.60
38241;DHT22;24037;49.536;8.500;2022-07-06T01:11:14;16.60;92.90
38241;DHT22;24037;49.536;8.500;2022-07-06T01:13:41;16.60;93.00
38241;DHT22;24037;49.536;8.500;2022-07-06T01:16:08;16.50;93.30
38241;DHT22;24037;49.536;8.500;2022-07-06T01:18:35;16.50;93.50
38241;DHT22;24037;49.536;8.500;2022-07-06T01:21:12;16.50;93.80
38241;DHT22;24037;49.536;8.500;2022-07-06T01:23:43;16.40;93.90
38241;DHT22;24037;49.536;8.500;2022-07-06T01:26:17;16.40;94.20
38241;DHT22;24037;49.536;8.500;2022-07-06T01:28:46;16.40;94.50
38241;DHT22;24037;49.536;8.500;2022-07-06T01:31:18;16.30;94.80
38241;DHT22;24037;49.536;8.500;2022-07-06T01:33:45;16.30;95.10
38241;DHT22;24037;49.536;8.500;2022-07-06T01:36:11;16.20;95.40
38241;DHT22;24037;49.536;8.500;2022-07-06T01:39:03;16.20;95.60
38241;DHT22;24037;49.536;8.500;2022-07-06T01:41:30;16.10;96.00
38241;DHT22;24037;49.536;8.500;2022-07-06T01:43:56;16.10;96.30
38241;DHT22;24037;49.536;8.500;2022-07-06T01:46:22;16.10;96.50
38241;DHT22;24037;49.536;8.500;2022-07-06T01:48:48;16.00;96.70
38241;DHT22;24037;49.536;8.500;2022-07-06T01:51:15;16.00;96.90
38241;DHT22;24037;49.536;8.500;2022-07-06T01:53:43;15.90;97.20
38241;DHT22;24037;49.536;8.500;2022-07-06T01:56:10;15.90;97.60
38241;DHT22;24037;49.536;8.500;2022-07-06T01:58:38;15.90;97.70
38241;DHT22;24037;49.536;8.500;2022-07-06T02:01:12;15.80;97.90
38241;DHT22;24037;49.536;8.500;2022-07-06T02:03:39;15.80;98.00
38241;DHT22;24037;49.536;8.500;2022-07-06T02:06:06;15.80;98.40
38241;DHT22;24037;49.536;8.500;2022-07-06T02:08:34;15.80;98.40
38241;DHT22;24037;49.536;8.500;2022-07-06T02:11:02;15.70;98.60
38241;DHT22;24037;49.536;8.500;2022-07-06T02:13:29;15.70;98.60
38241;DHT22;24037;49.536;8.500;2022-07-06T02:15:56;15.70;98.70
38241;DHT22;24037;49.536;8.500;2022-07-06T02:18:22;15.70;98.60
38241;DHT22;24037;49.536;8.500;2022-07-06T02:20:48;15.70;98.70
38241;DHT22;24037;49.536;8.500;2022-07-06T02:23:14;15.60;99.00
38241;DHT22;24037;49.536;8.500;2022-07-06T02:25:41;15.60;99.00
38241;DHT22;24037;49.536;8.500;2022-07-06T02:28:07;15.60;99.30
38241;DHT22;24037;49.536;8.500;2022-07-06T02:30:33;15.60;99.40
38241;DHT22;24037;49.536;8.500;2022-07-06T02:33:00;15.50;99.60
38241;DHT22;24037;49.536;8.500;2022-07-06T02:35:26;15.50;99.80
38241;DHT22;24037;49.536;8.500;2022-07-06T02:37:53;15.40;99.90
38241;DHT22;24037;49.536;8.500;2022-07-06T02:40:19;15.30;99.90
38241;DHT22;24037;49.536;8.500;2022-07-06T02:42:46;15.30;99.90
38241;DHT22;24037;49.536;8.500;2022-07-06T02:45:12;15.30;99.90
38241;DHT22;24037;49.536;8.500;2022-07-06T02:47:38;15.30;99.90
38241;DHT22;24037;49.536;8.500;2022-07-06T02:50:05;15.20;99.90
38241;DHT22;24037;49.536;8.500;2022-07-06T02:52:32;15.20;99.90
38241;DHT22;24037;49.536;8.500;2022-07-06T02:55:00;15.20;99.90
38241;DHT22;24037;49.536;8.500;2022-07-06T02:57:27;15.20;99.90
38241;DHT22;24037;49.536;8.500;2022-07-06T02:59:53;15.20;99.90
38241;DHT22;24037;49.536;8.500;2022-07-06T03:02:20;15.20;99.90
38241;DHT22;24037;49.536;8.500;2022-07-06T03:04:47;15.20;99.90
38241;DHT22;24037;49.536;8.500;2022-07-06T03:07:14;15.20;99.90
38241;DHT22;24037;49.536;8.500;2022-07-06T03:09:41;15.10;99.90
38241;DHT22;24037;49.536;8.500;2022-07-06T03:12:08;15.00;99.90
38241;DHT22;24037;49.536;8.500;2022-07-06T03:14:35;15.00;99.90
38241;DHT22;24037;49.536;8.500;2022-07-06T03:17:02;15.00;99.90
38241;DHT22;24037;49.536;8.500;2022-07-06T03:19:28;15.00;99.90
38241;DHT22;24037;49.536;8.500;2022-07-06T03:21:55;15.00;99.90
38241;DHT22;24037;49.536;8.500;2022-07-06T03:24:22;15.00;99.90
38241;DHT22;24037;49.536;8.500;2022-07-06T03:26:48;14.90;99.90
38241;DHT22;24037;49.536;8.500;2022-07-06T03:29:15;15.00;99.90
38241;DHT22;24037;49.536;8.500;2022-07-06T03:31:41;14.90;99.90
38241;DHT22;24037;49.536;8.500;2022-07-06T03:34:07;14.90;99.90
38241;DHT22;24037;49.536;8.500;2022-07-06T03:36:34;14.90;99.90
38241;DHT22;24037;49.536;8.500;2022-07-06T03:39:01;14.80;99.90
38241;DHT22;24037;49.536;8.500;2022-07-06T03:41:28;14.80;99.90
38241;DHT22;24037;49.536;8.500;2022-07-06T03:43:54;14.90;99.90
38241;DHT22;24037;49.536;8.500;2022-07-06T03:46:22;14.90;99.90
38241;DHT22;24037;49.536;8.500;2022-07-06T03:48:48;14.90;99.90
38241;DHT22;24037;49.536;8.500;2022-07-06T03:51:14;14.90;99.90
38241;DHT22;24037;49.536;8.500;2022-07-06T03:53:40;14.90;99.90
38241;DHT22;24037;49.536;8.500;2022-07-06T03:56:07;14.90;99.90
38241;DHT22;24037;49.536;8.500;2022-07-06T03:58:51;14.90;99.90
38241;DHT22;24037;49.536;8.500;2022-07-06T04:01:18;14.90;99.90
38241;DHT22;24037;49.536;8.500;2022-07-06T04:03:44;14.90;99.90
38241;DHT22;24037;49.536;8.500;2022-07-06T04:06:11;14.90;99.90
38241;DHT22;24037;49.536;8.500;2022-07-06T04:08:38;14.90;99.90
38241;DHT22;24037;49.536;8.500;2022-07-06T04:11:04;14.90;99.90
38241;DHT22;24037;49.536;8.500;2022-07-06T04:13:31;14.90;99.90
38241;DHT22;24037;49.536;8.500;2022-07-06T04:15:58;15.00;99.90
38241;DHT22;24037;49.536;8.500;2022-07-06T04:18:25;15.00;99.90
38241;DHT22;24037;49.536;8.500;2022-07-06T04:20:53;15.00;99.90
38241;DHT22;24037;49.536;8.500;2022-07-06T04:23:20;15.10;99.90
38241;DHT22;24037;49.536;8.500;2022-07-06T04:25:47;15.20;99.90
38241;DHT22;24037;49.536;8.500;2022-07-06T04:28:13;15.90;99.00
38241;DHT22;24037;49.536;8.500;2022-07-06T04:30:40;16.40;96.90
38241;DHT22;24037;49.536;8.500;2022-07-06T04:33:11;16.60;96.10
38241;DHT22;24037;49.536;8.500;2022-07-06T04:35:38;16.60;96.60
38241;DHT22;24037;49.536;8.500;2022-07-06T04:38:04;16.90;95.60
38241;DHT22;24037;49.536;8.500;2022-07-06T04:40:31;17.40;94.20
38241;DHT22;24037;49.536;8.500;2022-07-06T04:43:02;18.00;92.70
38241;DHT22;24037;49.536;8.500;2022-07-06T04:45:30;18.00;92.00
38241;DHT22;24037;49.536;8.500;2022-07-06T04:47:57;17.80;92.20
38241;DHT22;24037;49.536;8.500;2022-07-06T04:50:24;17.30;93.20
38241;DHT22;24037;49.536;8.500;2022-07-06T04:52:52;17.10;93.70
38241;DHT22;24037;49.536;8.500;2022-07-06T04:55:19;17.40;92.90
38241;DHT22;24037;49.536;8.500;2022-07-06T04:57:46;17.80;92.30
38241;DHT22;24037;49.536;8.500;2022-07-06T05:00:14;17.80;91.40
38241;DHT22;24037;49.536;8.500;2022-07-06T05:02:41;17.70;91.80
38241;DHT22;24037;49.536;8.500;2022-07-06T05:05:08;18.20;91.30
38241;DHT22;24037;49.536;8.500;2022-07-06T05:07:35;18.50;89.70
38241;DHT22;24037;49.536;8.500;2022-07-06T05:10:09;18.00;90.70
38241;DHT22;24037;49.536;8.500;2022-07-06T05:12:37;17.70;91.10
38241;DHT22;24037;49.536;8.500;2022-07-06T05:15:05;18.20;90.20
38241;DHT22;24037;49.536;8.500;2022-07-06T05:17:31;18.30;90.30
38241;DHT22;24037;49.536;8.500;2022-07-06T05:20:00;18.50;88.50
38241;DHT22;24037;49.536;8.500;2022-07-06T05:22:28;18.50;87.50
38241;DHT22;24037;49.536;8.500;2022-07-06T05:24:54;18.40;88.70
38241;DHT22;24037;49.536;8.500;2022-07-06T05:27:21;18.20;89.60
38241;DHT22;24037;49.536;8.500;2022-07-06T05:29:48;18.60;88.10
38241;DHT22;24037;49.536;8.500;2022-07-06T05:32:15;18.90;85.60
38241;DHT22;24037;49.536;8.500;2022-07-06T05:34:42;18.90;85.80
38241;DHT22;24037;49.536;8.500;2022-07-06T05:37:09;18.40;86.70
38241;DHT22;24037;49.536;8.500;2022-07-06T05:39:36;18.50;87.00
38241;DHT22;24037;49.536;8.500;2022-07-06T05:42:04;18.60;86.00
38241;DHT22;24037;49.536;8.500;2022-07-06T05:44:33;18.50;86.70
38241;DHT22;24037;49.536;8.500;2022-07-06T05:46:59;18.80;86.50
38241;DHT22;24037;49.536;8.500;2022-07-06T05:49:46;18.90;83.70
38241;DHT22;24037;49.536;8.500;2022-07-06T05:52:32;19.30;82.80
38241;DHT22;24037;49.536;8.500;2022-07-06T05:54:58;19.60;79.70
38241;DHT22;24037;49.536;8.500;2022-07-06T05:57:24;18.50;84.30
38241;DHT22;24037;49.536;8.500;2022-07-06T05:59:51;18.50;84.50
38241;DHT22;24037;49.536;8.500;2022-07-06T06:02:17;18.80;84.20
38241;DHT22;24037;49.536;8.500;2022-07-06T06:04:44;19.10;83.30
38241;DHT22;24037;49.536;8.500;2022-07-06T06:07:10;19.60;81.00
38241;DHT22;24037;49.536;8.500;2022-07-06T06:09:36;19.80;80.40
38241;DHT22;24037;49.536;8.500;2022-07-06T06:12:03;20.10;79.20
38241;DHT22;24037;49.536;8.500;2022-07-06T06:14:30;20.00;78.30
38241;DHT22;24037;49.536;8.500;2022-07-06T06:16:57;19.40;81.00
38241;DHT22;24037;49.536;8.500;2022-07-06T06:19:23;19.40;80.30
38241;DHT22;24037;49.536;8.500;2022-07-06T06:21:49;19.10;80.10
38241;DHT22;24037;49.536;8.500;2022-07-06T06:24:17;18.80;82.50
38241;DHT22;24037;49.536;8.500;2022-07-06T06:26:43;18.50;84.30
38241;DHT22;24037;49.536;8.500;2022-07-06T06:29:10;19.40;82.50
38241;DHT22;24037;49.536;8.500;2022-07-06T06:31:36;19.50;80.10
38241;DHT22;24037;49.536;8.500;2022-07-06T06:34:03;19.20;80.30
38241;DHT22;24037;49.536;8.500;2022-07-06T06:36:29;19.10;81.50
38241;DHT22;24037;49.536;8.500;2022-07-06T06:38:55;19.70;79.70
38241;DHT22;24037;49.536;8.500;2022-07-06T06:41:21;19.70;78.70
38241;DHT22;24037;49.536;8.500;2022-07-06T06:43:47;19.40;79.10
38241;DHT22;24037;49.536;8.500;2022-07-06T06:46:18;19.40;79.60
38241;DHT22;24037;49.536;8.500;2022-07-06T06:48:44;19.50;78.30
38241;DHT22;24037;49.536;8.500;2022-07-06T06:51:10;19.20;79.60
38241;DHT22;24037;49.536;8.500;2022-07-06T06:53:36;19.40;79.70
38241;DHT22;24037;49.536;8.500;2022-07-06T06:56:03;18.90;80.30
38241;DHT22;24037;49.536;8.500;2022-07-06T06:58:29;19.20;81.20
38241;DHT22;24037;49.536;8.500;2022-07-06T07:00:55;19.90;78.90
38241;DHT22;24037;49.536;8.500;2022-07-06T07:03:21;20.30;77.00
38241;DHT22;24037;49.536;8.500;2022-07-06T07:05:47;20.20;76.20
38241;DHT22;24037;49.536;8.500;2022-07-06T07:08:14;19.70;78.50
38241;DHT22;24037;49.536;8.500;2022-07-06T07:10:41;20.40;76.30
38241;DHT22;24037;49.536;8.500;2022-07-06T07:13:07;20.80;73.70
38241;DHT22;24037;49.536;8.500;2022-07-06T07:15:33;21.10;71.90
38241;DHT22;24037;49.536;8.500;2022-07-06T07:17:59;21.00;72.20
38241;DHT22;24037;49.536;8.500;2022-07-06T07:20:25;20.80;72.50
38241;DHT22;24037;49.536;8.500;2022-07-06T07:22:52;20.50;73.20
38241;DHT22;24037;49.536;8.500;2022-07-06T07:25:18;20.60;73.40
38241;DHT22;24037;49.536;8.500;2022-07-06T07:27:44;20.20;73.20
38241;DHT22;24037;49.536;8.500;2022-07-06T07:30:10;20.50;72.30
38241;DHT22;24037;49.536;8.500;2022-07-06T07:32:37;20.50;71.40
38241;DHT22;24037;49.536;8.500;2022-07-06T07:35:03;21.00;71.10
38241;DHT22;24037;49.536;8.500;2022-07-06T07:37:30;21.30;70.30
38241;DHT22;24037;49.536;8.500;2022-07-06T07:39:59;20.60;71.00
38241;DHT22;24037;49.536;8.500;2022-07-06T07:42:25;20.80;72.70
38241;DHT22;24037;49.536;8.500;2022-07-06T07:44:51;21.30;68.80
38241;DHT22;24037;49.536;8.500;2022-07-06T07:47:17;21.10;68.00
38241;DHT22;24037;49.536;8.500;2022-07-06T07:49:44;20.70;68.40
38241;DHT22;24037;49.536;8.500;2022-07-06T07:52:10;20.60;69.80
38241;DHT22;24037;49.536;8.500;2022-07-06T07:54:37;21.20;68.20
38241;DHT22;24037;49.536;8.500;2022-07-06T07:57:03;21.70;67.80
38241;DHT22;24037;49.536;8.500;2022-07-06T07:59:30;21.70;66.40
38241;DHT22;24037;49.536;8.500;2022-07-06T08:01:56;21.10;66.30
38241;DHT22;24037;49.536;8.500;2022-07-06T08:04:22;20.30;68.60
38241;DHT22;24037;49.536;8.500;2022-07-06T08:06:49;20.20;69.50
38241;DHT22;24037;49.536;8.500;2022-07-06T08:09:15;20.40;69.40
38241;DHT22;24037;49.536;8.500;2022-07-06T08:11:43;20.80;67.20
38241;DHT22;24037;49.536;8.500;2022-07-06T08:14:09;20.20;69.80
38241;DHT22;24037;49.536;8.500;2022-07-06T08:16:35;20.40;67.10
38241;DHT22;24037;49.536;8.500;2022-07-06T08:19:02;20.40;67.70
38241;DHT22;24037;49.536;8.500;2022-07-06T08:21:28;20.50;67.20
38241;DHT22;24037;49.536;8.500;2022-07-06T08:23:55;20.70;66.60
38241;DHT22;24037;49.536;8.500;2022-07-06T08:26:21;21.10;65.40
38241;DHT22;24037;49.536;8.500;2022-07-06T08:28:48;21.70;63.50
38241;DHT22;24037;49.536;8.500;2022-07-06T08:31:14;22.00;63.50
38241;DHT22;24037;49.536;8.500;2022-07-06T08:33:40;22.20;62.30
38241;DHT22;24037;49.536;8.500;2022-07-06T08:36:06;22.20;60.70
38241;DHT22;24037;49.536;8.500;2022-07-06T08:38:33;21.80;60.70
38241;DHT22;24037;49.536;8.500;2022-07-06T08:40:59;21.00;62.80
38241;DHT22;24037;49.536;8.500;2022-07-06T08:43:25;20.90;63.00
38241;DHT22;24037;49.536;8.500;2022-07-06T08:45:53;21.40;62.00
38241;DHT22;24037;49.536;8.500;2022-07-06T08:48:23;20.90;62.40
38241;DHT22;24037;49.536;8.500;2022-07-06T08:50:49;20.50;62.40
38241;DHT22;24037;49.536;8.500;2022-07-06T08:53:17;20.40;62.70
38241;DHT22;24037;49.536;8.500;2022-07-06T08:55:44;20.70;61.50
38241;DHT22;24037;49.536;8.500;2022-07-06T08:58:10;20.50;61.80
38241;DHT22;24037;49.536;8.500;2022-07-06T09:00:37;20.50;62.60
38241;DHT22;24037;49.536;8.500;2022-07-06T09:03:04;20.80;61.60
38241;DHT22;24037;49.536;8.500;2022-07-06T09:05:32;20.90;62.80
38241;DHT22;24037;49.536;8.500;2022-07-06T09:08:00;21.60;59.00
38241;DHT22;24037;49.536;8.500;2022-07-06T09:10:27;20.60;60.40
38241;DHT22;24037;49.536;8.500;2022-07-06T09:13:02;20.40;61.20
38241;DHT22;24037;49.536;8.500;2022-07-06T09:15:29;20.30;61.70
38241;DHT22;24037;49.536;8.500;2022-07-06T09:17:56;20.40;61.20
38241;DHT22;24037;49.536;8.500;2022-07-06T09:20:24;20.90;61.10
38241;DHT22;24037;49.536;8.500;2022-07-06T09:22:50;21.20;59.90
38241;DHT22;24037;49.536;8.500;2022-07-06T09:25:16;20.90;61.00
38241;DHT22;24037;49.536;8.500;2022-07-06T09:27:44;21.50;61.40
38241;DHT22;24037;49.536;8.500;2022-07-06T09:30:14;21.50;60.00
38241;DHT22;24037;49.536;8.500;2022-07-06T09:32:46;21.10;60.20
38241;DHT22;24037;49.536;8.500;2022-07-06T09:35:25;21.70;60.10
38241;DHT22;24037;49.536;8.500;2022-07-06T09:38:20;23.00;57.80
38241;DHT22;24037;49.536;8.500;2022-07-06T09:40:46;22.60;57.00
38241;DHT22;24037;49.536;8.500;2022-07-06T09:43:16;22.30;59.10
38241;DHT22;24037;49.536;8.500;2022-07-06T09:45:53;22.20;58.20
38241;DHT22;24037;49.536;8.500;2022-07-06T09:48:22;21.80;58.30
38241;DHT22;24037;49.536;8.500;2022-07-06T09:50:53;21.50;59.00
38241;DHT22;24037;49.536;8.500;2022-07-06T09:53:21;21.40;59.50
38241;DHT22;24037;49.536;8.500;2022-07-06T09:55:50;21.50;59.10
38241;DHT22;24037;49.536;8.500;2022-07-06T09:58:18;21.70;58.50
38241;DHT22;24037;49.536;8.500;2022-07-06T10:00:46;21.90;57.70
38241;DHT22;24037;49.536;8.500;2022-07-06T10:03:14;21.90;58.10
38241;DHT22;24037;49.536;8.500;2022-07-06T10:05:43;22.00;59.00
38241;DHT22;24037;49.536;8.500;2022-07-06T10:08:10;21.80;58.00
38241;DHT22;24037;49.536;8.500;2022-07-06T10:10:37;22.10;56.40
38241;DHT22;24037;49.536;8.500;2022-07-06T10:13:04;21.70;57.50
38241;DHT22;24037;49.536;8.500;2022-07-06T10:15:35;21.80;57.50
38241;DHT22;24037;49.536;8.500;2022-07-06T10:18:04;22.00;56.80
38241;DHT22;24037;49.536;8.500;2022-07-06T10:20:36;21.80;57.40
38241;DHT22;24037;49.536;8.500;2022-07-06T10:23:04;21.70;57.90
38241;DHT22;24037;49.536;8.500;2022-07-06T10:25:32;21.40;57.80
38241;DHT22;24037;49.536;8.500;2022-07-06T10:27:59;21.40;59.40
38241;DHT22;24037;49.536;8.500;2022-07-06T10:30:27;21.90;56.40
38241;DHT22;24037;49.536;8.500;2022-07-06T10:32:56;21.30;56.50
38241;DHT22;24037;49.536;8.500;2022-07-06T10:35:22;21.20;57.80
38241;DHT22;24037;49.536;8.500;2022-07-06T10:38:09;21.60;56.30
38241;DHT22;24037;49.536;8.500;2022-07-06T10:40:37;21.80;55.80
38241;DHT22;24037;49.536;8.500;2022-07-06T10:43:22;21.90;57.30
38241;DHT22;24037;49.536;8.500;2022-07-06T10:45:49;21.50;54.60
38241;DHT22;24037;49.536;8.500;2022-07-06T10:48:16;21.60;54.10
38241;DHT22;24037;49.536;8.500;2022-07-06T10:50:52;21.50;53.50
38241;DHT22;24037;49.536;8.500;2022-07-06T10:53:26;21.70;53.30
38241;DHT22;24037;49.536;8.500;2022-07-06T10:55:55;21.70;53.50
38241;DHT22;24037;49.536;8.500;2022-07-06T10:58:51;21.80;52.50
38241;DHT22;24037;49.536;8.500;2022-07-06T11:01:20;21.40;52.10
38241;DHT22;24037;49.536;8.500;2022-07-06T11:03:48;21.40;53.00
38241;DHT22;24037;49.536;8.500;2022-07-06T11:06:23;21.70;52.40
38241;DHT22;24037;49.536;8.500;2022-07-06T11:09:06;22.10;50.80
38241;DHT22;24037;49.536;8.500;2022-07-06T11:14:00;21.90;50.70
38241;DHT22;24037;49.536;8.500;2022-07-06T11:16:59;22.00;49.50
38241;DHT22;24037;49.536;8.500;2022-07-06T11:19:29;22.10;50.40
38241;DHT22;24037;49.536;8.500;2022-07-06T11:22:09;22.40;49.80
38241;DHT22;24037;49.536;8.500;2022-07-06T11:24:37;21.90;49.10
38241;DHT22;24037;49.536;8.500;2022-07-06T11:27:05;22.30;48.90
38241;DHT22;24037;49.536;8.500;2022-07-06T11:29:33;22.10;47.80
38241;DHT22;24037;49.536;8.500;2022-07-06T11:32:06;21.80;48.60
38241;DHT22;24037;49.536;8.500;2022-07-06T11:34:36;22.20;49.50
38241;DHT22;24037;49.536;8.500;2022-07-06T11:37:08;22.00;48.10
38241;DHT22;24037;49.536;8.500;2022-07-06T11:39:37;22.10;48.40
38241;DHT22;24037;49.536;8.500;2022-07-06T11:42:06;22.20;48.40
38241;DHT22;24037;49.536;8.500;2022-07-06T11:44:34;22.10;49.50
38241;DHT22;24037;49.536;8.500;2022-07-06T11:47:01;22.50;48.00
38241;DHT22;24037;49.536;8.500;2022-07-06T11:49:30;22.60;47.30
38241;DHT22;24037;49.536;8.500;2022-07-06T11:51:57;22.30;48.30
38241;DHT22;24037;49.536;8.500;2022-07-06T11:54:25;22.40;47.60
38241;DHT22;24037;49.536;8.500;2022-07-06T11:56:53;22.70;48.30
38241;DHT22;24037;49.536;8.500;2022-07-06T11:59:25;22.90;48.10
38241;DHT22;24037;49.536;8.500;2022-07-06T12:02:11;22.70;47.50
38241;DHT22;24037;49.536;8.500;2022-07-06T12:04:39;22.80;46.70
38241;DHT22;24037;49.536;8.500;2022-07-06T12:07:08;22.20;48.60
38241;DHT22;24037;49.536;8.500;2022-07-06T12:09:36;21.90;48.50
38241;DHT22;24037;49.536;8.500;2022-07-06T12:12:03;21.90;49.40
38241;DHT22;24037;49.536;8.500;2022-07-06T12:14:31;22.20;48.90
38241;DHT22;24037;49.536;8.500;2022-07-06T12:17:04;22.50;48.90
38241;DHT22;24037;49.536;8.500;2022-07-06T12:19:30;22.90;48.10
38241;DHT22;24037;49.536;8.500;2022-07-06T12:21:56;23.10;48.40
38241;DHT22;24037;49.536;8.500;2022-07-06T12:24:28;22.70;46.70
38241;DHT22;24037;49.536;8.500;2022-07-06T12:26:56;22.70;48.00
38241;DHT22;24037;49.536;8.500;2022-07-06T12:29:22;23.00;46.40
38241;DHT22;24037;49.536;8.500;2022-07-06T12:31:53;22.40;47.10
38241;DHT22;24037;49.536;8.500;2022-07-06T12:34:28;22.80;46.50
38241;DHT22;24037;49.536;8.500;2022-07-06T12:36:58;23.00;45.90
38241;DHT22;24037;49.536;8.500;2022-07-06T12:39:26;22.60;46.80
38241;DHT22;24037;49.536;8.500;2022-07-06T12:42:01;22.80;46.30
38241;DHT22;24037;49.536;8.500;2022-07-06T12:44:29;22.90;46.50
38241;DHT22;24037;49.536;8.500;2022-07-06T12:47:03;22.70;46.50
38241;DHT22;24037;49.536;8.500;2022-07-06T12:49:30;22.60;46.40
38241;DHT22;24037;49.536;8.500;2022-07-06T12:51:57;22.50;47.70
38241;DHT22;24037;49.536;8.500;2022-07-06T12:54:35;23.00;47.80
38241;DHT22;24037;49.536;8.500;2022-07-06T12:57:07;23.10;46.90
38241;DHT22;24037;49.536;8.500;2022-07-06T12:59:36;23.20;47.00
38241;DHT22;24037;49.536;8.500;2022-07-06T13:02:04;23.30;45.80
38241;DHT22;24037;49.536;8.500;2022-07-06T13:04:31;23.10;46.00
38241;DHT22;24037;49.536;8.500;2022-07-06T13:06:59;23.20;47.30
38241;DHT22;24037;49.536;8.500;2022-07-06T13:09:28;23.10;45.40
38241;DHT22;24037;49.536;8.500;2022-07-06T13:11:54;23.20;46.10
38241;DHT22;24037;49.536;8.500;2022-07-06T13:14:21;23.10;46.50
38241;DHT22;24037;49.536;8.500;2022-07-06T13:16:48;23.10;46.50
38241;DHT22;24037;49.536;8.500;2022-07-06T13:19:14;23.00;46.90
38241;DHT22;24037;49.536;8.500;2022-07-06T13:21:41;23.10;47.10
38241;DHT22;24037;49.536;8.500;2022-07-06T13:24:07;23.20;47.40
38241;DHT22;24037;49.536;8.500;2022-07-06T13:26:33;23.30;46.70
38241;DHT22;24037;49.536;8.500;2022-07-06T13:29:01;23.20;46.80
38241;DHT22;24037;49.536;8.500;2022-07-06T13:31:29;23.00;46.90
38241;DHT22;24037;49.536;8.500;2022-07-06T13:33:55;23.00;47.60
38241;DHT22;24037;49.536;8.500;2022-07-06T13:36:23;23.10;46.80
38241;DHT22;24037;49.536;8.500;2022-07-06T13:38:49;23.00;47.10
38241;DHT22;24037;49.536;8.500;2022-07-06T13:41:15;23.00;47.00
38241;DHT22;24037;49.536;8.500;2022-07-06T13:43:42;23.30;46.40
38241;DHT22;24037;49.536;8.500;2022-07-06T13:46:08;23.40;46.50
38241;DHT22;24037;49.536;8.500;2022-07-06T13:48:36;22.90;47.30
38241;DHT22;24037;49.536;8.500;2022-07-06T13:51:03;23.20;47.80
38241;DHT22;24037;49.536;8.500;2022-07-06T13:53:29;23.60;47.30
38241;DHT22;24037;49.536;8.500;2022-07-06T13:55:57;23.50;47.10
38241;DHT22;24037;49.536;8.500;2022-07-06T13:58:23;23.50;46.60
38241;DHT22;24037;49.536;8.500;2022-07-06T14:00:50;23.40;46.00
38241;DHT22;24037;49.536;8.500;2022-07-06T14:03:16;23.00;46.70
38241;DHT22;24037;49.536;8.500;2022-07-06T14:05:42;23.10;46.50
38241;DHT22;24037;49.536;8.500;2022-07-06T14:08:08;23.10;45.60
38241;DHT22;24037;49.536;8.500;2022-07-06T14:10:34;22.80;46.10
38241;DHT22;24037;49.536;8.500;2022-07-06T14:13:01;23.00;46.70
38241;DHT22;24037;49.536;8.500;2022-07-06T14:15:27;23.40;46.40
38241;DHT22;24037;49.536;8.500;2022-07-06T14:17:53;23.60;46.10
38241;DHT22;24037;49.536;8.500;2022-07-06T14:20:19;23.40;47.20
38241;DHT22;24037;49.536;8.500;2022-07-06T14:22:46;23.50;46.40
38241;DHT22;24037;49.536;8.500;2022-07-06T14:25:12;24.00;46.40
38241;DHT22;24037;49.536;8.500;2022-07-06T14:27:38;24.20;45.50
38241;DHT22;24037;49.536;8.500;2022-07-06T14:30:06;23.90;46.00
38241;DHT22;24037;49.536;8.500;2022-07-06T14:32:33;23.50;46.20
38241;DHT22;24037;49.536;8.500;2022-07-06T14:34:59;23.60;46.30
38241;DHT22;24037;49.536;8.500;2022-07-06T14:37:25;23.70;46.10
38241;DHT22;24037;49.536;8.500;2022-07-06T14:39:51;23.70;45.70
38241;DHT22;24037;49.536;8.500;2022-07-06T14:42:17;23.20;46.30
38241;DHT22;24037;49.536;8.500;2022-07-06T14:44:44;23.30;46.50
38241;DHT22;24037;49.536;8.500;2022-07-06T14:47:10;23.60;46.30
38241;DHT22;24037;49.536;8.500;2022-07-06T14:49:36;23.80;46.30
38241;DHT22;24037;49.536;8.500;2022-07-06T14:52:04;24.20;46.40
38241;DHT22;24037;49.536;8.500;2022-07-06T14:54:30;24.30;45.90
38241;DHT22;24037;49.536;8.500;2022-07-06T14:56:56;24.30;45.80
38241;DHT22;24037;49.536;8.500;2022-07-06T14:59:23;24.20;45.20
38241;DHT22;24037;49.536;8.500;2022-07-06T15:01:49;23.80;45.40
38241;DHT22;24037;49.536;8.500;2022-07-06T15:04:15;23.40;46.30
38241;DHT22;24037;49.536;8.500;2022-07-06T15:06:41;23.90;45.90
38241;DHT22;24037;49.536;8.500;2022-07-06T15:09:08;24.20;46.20
38241;DHT22;24037;49.536;8.500;2022-07-06T15:11:34;24.40;46.50
38241;DHT22;24037;49.536;8.500;2022-07-06T15:14:00;24.40;47.10
38241;DHT22;24037;49.536;8.500;2022-07-06T15:16:26;24.20;45.50
38241;DHT22;24037;49.536;8.500;2022-07-06T15:18:52;23.80;46.10
38241;DHT22;24037;49.536;8.500;2022-07-06T15:21:19;23.60;46.70
38241;DHT22;24037;49.536;8.500;2022-07-06T15:23:45;23.30;46.10
38241;DHT22;24037;49.536;8.500;2022-07-06T15:26:11;23.10;47.10
38241;DHT22;24037;49.536;8.500;2022-07-06T15:28:37;23.00;47.50
38241;DHT22;24037;49.536;8.500;2022-07-06T15:31:03;22.70;47.70
38241;DHT22;24037;49.536;8.500;2022-07-06T15:33:30;22.60;48.10
38241;DHT22;24037;49.536;8.500;2022-07-06T15:35:56;22.40;48.10
38241;DHT22;24037;49.536;8.500;2022-07-06T15:38:22;22.30;48.00